New Germantown, Pennsylvania
Current Conditions -  °F | °C
As of 9:56 PM on Tuesday 25 Nov 2014 (Local Time) from KCXY Reporting Station
Clear Clear  
Wind Chill: 38°   Ceiling: Unl
Heat Index: 38°   Visibility: 10mi
Dew Point: 31°   Wind: 0mph
Humidity: 76%   Direction: NA
Pressure: 30.13"   Gusts: NA
Location:  40.31°N, 77.57°W
Report Text: KCXY 260256Z AUTO 00000KT 10SM CLR 03/M01 A3013 RMK AO2 SLP207 T00331006 51012
Loading
Personal Weather Stations






























Interactive Weather Map New forecast layout! Learn more

10-Day Weather Forecast

Advertisements
Track Severe Weather on mobile